createdAt,value
2017-11-16T00:00:29.031Z,37.80
2017-11-16T00:01:29.349Z,36.90
2017-11-16T00:02:29.490Z,36.80
2017-11-16T00:03:28.800Z,38.80
2017-11-16T00:04:29.095Z,39.40
2017-11-16T00:05:29.269Z,40.00
2017-11-16T00:06:29.416Z,39.80
2017-11-16T00:07:28.114Z,39.40
2017-11-16T00:08:29.431Z,40.60
2017-11-16T00:09:28.631Z,41.00
2017-11-16T00:10:28.318Z,40.10
2017-11-16T00:11:29.148Z,40.40
2017-11-16T00:12:29.476Z,40.20
2017-11-16T00:13:30.194Z,41.70
2017-11-16T00:14:29.281Z,42.60
2017-11-16T00:15:29.369Z,42.20
2017-11-16T00:16:28.294Z,41.20
2017-11-16T00:17:29.495Z,42.30
2017-11-16T00:18:28.641Z,42.70
2017-11-16T00:19:28.645Z,42.40
2017-11-16T00:20:29.254Z,43.20
2017-11-16T00:21:28.989Z,44.00
2017-11-16T00:22:28.674Z,41.90
2017-11-16T00:23:28.524Z,45.70
2017-11-16T00:24:28.694Z,42.90
2017-11-16T00:25:28.742Z,43.60
2017-11-16T00:26:28.715Z,44.40
2017-11-16T00:27:28.978Z,48.80
2017-11-16T00:28:29.657Z,47.00
2017-11-16T00:29:28.941Z,45.40
2017-11-16T00:30:29.161Z,45.10
2017-11-16T00:31:28.479Z,44.80
2017-11-16T00:32:29.074Z,44.70
2017-11-16T00:33:29.283Z,44.50
2017-11-16T00:34:29.248Z,43.90
2017-11-16T00:35:29.220Z,46.90
2017-11-16T00:36:28.614Z,42.60
2017-11-16T00:37:28.713Z,45.10
2017-11-16T00:38:28.530Z,44.60
2017-11-16T00:39:28.611Z,46.30
2017-11-16T00:40:29.000Z,45.90
2017-11-16T00:41:29.334Z,44.70
2017-11-16T00:42:29.155Z,43.30
2017-11-16T00:43:28.967Z,44.00
2017-11-16T00:44:29.233Z,44.00
2017-11-16T00:45:29.195Z,45.00
2017-11-16T00:46:28.720Z,45.90
2017-11-16T00:47:28.686Z,45.30
2017-11-16T00:48:29.328Z,41.40
2017-11-16T00:49:29.353Z,45.00
2017-11-16T00:50:28.834Z,46.40
2017-11-16T00:51:29.045Z,44.50
2017-11-16T00:52:28.922Z,44.90
2017-11-16T00:53:29.512Z,43.80
2017-11-16T00:54:28.825Z,44.30
2017-11-16T00:55:28.976Z,46.00
2017-11-16T00:56:29.056Z,46.00
2017-11-16T00:57:29.188Z,45.10
2017-11-16T00:58:28.943Z,45.60
2017-11-16T00:59:29.095Z,47.40
2017-11-16T01:00:29.225Z,45.30
2017-11-16T01:01:28.961Z,44.40
2017-11-16T01:02:28.812Z,45.10
2017-11-16T01:03:28.725Z,44.70
2017-11-16T01:04:28.548Z,44.30
2017-11-16T01:05:29.633Z,44.10
2017-11-16T01:06:28.612Z,42.70
2017-11-16T01:07:28.841Z,43.10
2017-11-16T01:08:29.143Z,42.70
2017-11-16T01:09:29.136Z,43.60
2017-11-16T01:10:29.420Z,44.10
2017-11-16T01:11:29.032Z,42.20
2017-11-16T01:12:29.328Z,40.80
2017-11-16T01:13:28.714Z,41.70
2017-11-16T01:14:29.041Z,41.50
2017-11-16T01:15:29.673Z,41.90
2017-11-16T01:16:28.835Z,41.50
2017-11-16T01:17:28.941Z,41.70
2017-11-16T01:18:29.357Z,41.80
2017-11-16T01:19:28.175Z,38.60
2017-11-16T01:20:28.602Z,40.30
2017-11-16T01:21:29.047Z,39.80
2017-11-16T01:22:28.646Z,40.60
2017-11-16T01:23:28.789Z,39.90
2017-11-16T01:24:29.010Z,39.70
2017-11-16T01:25:29.380Z,40.90
2017-11-16T01:26:28.516Z,38.50
2017-11-16T01:27:28.885Z,36.90
2017-11-16T01:28:28.565Z,38.00
2017-11-16T01:29:28.777Z,38.60
2017-11-16T01:30:28.889Z,37.30
2017-11-16T01:31:29.165Z,37.90
2017-11-16T01:32:29.698Z,39.90
2017-11-16T01:33:28.787Z,36.90
2017-11-16T01:34:28.704Z,36.30
2017-11-16T01:35:28.102Z,36.90
2017-11-16T01:36:29.288Z,37.40
2017-11-16T01:37:28.246Z,36.40
2017-11-16T01:38:28.701Z,37.90
2017-11-16T01:39:28.775Z,38.10
2017-11-16T01:40:28.945Z,37.00
2017-11-16T01:41:28.907Z,35.20
2017-11-16T01:42:28.979Z,35.60
2017-11-16T01:43:28.730Z,37.20
2017-11-16T01:44:28.946Z,36.40
2017-11-16T01:45:28.747Z,36.80
2017-11-16T01:46:28.901Z,36.40
2017-11-16T01:47:28.914Z,34.80
2017-11-16T01:48:28.589Z,38.00
2017-11-16T01:49:28.416Z,35.70
2017-11-16T01:50:28.926Z,36.50
2017-11-16T01:51:29.311Z,34.70
2017-11-16T01:52:29.523Z,35.90
2017-11-16T01:53:28.852Z,37.10
2017-11-16T01:54:29.049Z,36.00
2017-11-16T01:55:29.196Z,36.50
2017-11-16T01:56:28.889Z,35.80
2017-11-16T01:57:29.050Z,35.80
2017-11-16T01:58:28.892Z,35.50
2017-11-16T01:59:29.224Z,35.30
2017-11-16T02:00:28.965Z,36.00
2017-11-16T02:01:28.744Z,35.00
2017-11-16T02:02:29.502Z,35.90
2017-11-16T02:03:28.636Z,33.60
2017-11-16T02:04:28.409Z,35.60
2017-11-16T02:05:28.211Z,34.90
2017-11-16T02:06:29.413Z,35.50
2017-11-16T02:07:28.673Z,33.50
2017-11-16T02:08:29.116Z,34.50
2017-11-16T02:09:28.900Z,35.90
2017-11-16T02:10:28.694Z,34.60
2017-11-16T02:11:28.463Z,34.70
2017-11-16T02:12:28.236Z,34.40
2017-11-16T02:13:28.954Z,34.60
2017-11-16T02:14:28.638Z,35.30
2017-11-16T02:15:29.011Z,33.10
2017-11-16T02:16:28.959Z,32.90
2017-11-16T02:17:28.549Z,32.30
2017-11-16T02:18:28.717Z,32.20
2017-11-16T02:19:28.878Z,34.50
2017-11-16T02:20:28.591Z,34.70
2017-11-16T02:21:28.745Z,33.90
2017-11-16T02:22:28.523Z,32.70
2017-11-16T02:23:28.682Z,33.60
2017-11-16T02:24:28.902Z,33.20
2017-11-16T02:25:28.924Z,32.90
2017-11-16T02:26:28.892Z,32.80
2017-11-16T02:27:29.469Z,32.60
2017-11-16T02:28:28.225Z,33.50
2017-11-16T02:29:29.108Z,34.20
2017-11-16T02:30:29.001Z,32.90
2017-11-16T02:31:29.207Z,32.50
2017-11-16T02:32:29.732Z,31.70
2017-11-16T02:33:28.454Z,32.70
2017-11-16T02:34:28.310Z,32.20
2017-11-16T02:35:28.775Z,32.30
2017-11-16T02:36:29.199Z,32.90
2017-11-16T02:37:29.448Z,32.20
2017-11-16T02:38:28.510Z,30.90
2017-11-16T02:39:28.598Z,34.00
2017-11-16T02:40:28.634Z,34.70
2017-11-16T02:41:28.346Z,33.90
2017-11-16T02:42:29.955Z,32.30
2017-11-16T02:43:29.419Z,32.50
2017-11-16T02:44:28.240Z,33.10
2017-11-16T02:45:28.975Z,31.30
2017-11-16T02:46:29.224Z,33.10
2017-11-16T02:47:29.177Z,33.30
2017-11-16T02:48:28.489Z,31.70
2017-11-16T02:49:28.139Z,31.80
2017-11-16T02:50:29.294Z,32.30
2017-11-16T02:51:29.219Z,32.80
2017-11-16T02:52:29.574Z,32.90
2017-11-16T02:53:28.884Z,31.20
2017-11-16T02:54:28.622Z,31.50
2017-11-16T02:55:29.315Z,31.00
2017-11-16T02:56:29.431Z,33.20
2017-11-16T02:57:28.796Z,31.30
2017-11-16T02:58:28.596Z,32.20
2017-11-16T02:59:28.571Z,29.80
2017-11-16T03:00:28.328Z,31.00
2017-11-16T03:01:29.629Z,31.80
2017-11-16T03:02:29.150Z,31.30
2017-11-16T03:03:28.991Z,31.90
2017-11-16T03:04:29.353Z,30.90
2017-11-16T03:05:29.370Z,31.10
2017-11-16T03:06:29.501Z,32.20
2017-11-16T03:07:29.551Z,32.30
2017-11-16T03:08:28.320Z,31.80
2017-11-16T03:09:28.995Z,32.20
2017-11-16T03:10:28.855Z,32.50
2017-11-16T03:11:29.090Z,32.10
2017-11-16T03:12:29.199Z,31.70
2017-11-16T03:14:07.990Z,31.30
2017-11-16T03:15:29.242Z,32.10
2017-11-16T03:16:29.237Z,33.30
2017-11-16T03:17:28.853Z,31.50
2017-11-16T03:18:28.762Z,31.30
2017-11-16T03:19:28.462Z,30.80
2017-11-16T03:20:29.108Z,31.60
2017-11-16T03:21:28.613Z,32.10
2017-11-16T03:22:28.953Z,31.20
2017-11-16T03:23:29.062Z,30.90
2017-11-16T03:24:29.394Z,32.50
2017-11-16T03:25:28.085Z,31.90
2017-11-16T03:26:29.071Z,31.20
2017-11-16T03:27:28.858Z,32.10
2017-11-16T03:28:29.127Z,30.90
2017-11-16T03:29:29.529Z,31.50
2017-11-16T03:30:28.769Z,30.60
2017-11-16T03:31:29.002Z,31.10
2017-11-16T03:32:29.280Z,30.80
2017-11-16T03:33:29.180Z,32.20
2017-11-16T03:34:28.947Z,32.90
2017-11-16T03:35:29.216Z,30.20
2017-11-16T03:36:29.504Z,32.30
2017-11-16T03:37:28.330Z,33.20
2017-11-16T03:38:29.365Z,31.70
2017-11-16T03:39:28.303Z,31.10
2017-11-16T03:40:29.547Z,31.50
2017-11-16T03:41:28.863Z,32.90
2017-11-16T03:42:29.064Z,33.00
2017-11-16T03:43:29.353Z,34.20
2017-11-16T03:44:28.658Z,33.20
2017-11-16T03:45:28.316Z,35.10
2017-11-16T03:46:29.125Z,35.00
2017-11-16T03:47:28.393Z,33.70
2017-11-16T03:48:28.970Z,34.70
2017-11-16T03:49:28.426Z,35.10
2017-11-16T03:50:28.734Z,33.60
2017-11-16T03:51:28.962Z,33.00
2017-11-16T03:52:29.427Z,32.30
2017-11-16T03:53:28.567Z,31.80
2017-11-16T03:54:29.467Z,34.40
2017-11-16T03:55:28.683Z,33.70
2017-11-16T03:56:28.416Z,32.20
2017-11-16T03:57:28.529Z,33.50
2017-11-16T03:58:28.871Z,33.50
2017-11-16T03:59:28.601Z,34.30
2017-11-16T04:00:28.776Z,36.20
2017-11-16T04:01:28.877Z,34.90
2017-11-16T04:02:29.128Z,37.20
2017-11-16T04:03:29.534Z,38.00
2017-11-16T04:04:28.723Z,37.20
2017-11-16T04:05:28.863Z,37.50
2017-11-16T04:06:29.197Z,38.00
2017-11-16T04:07:29.519Z,39.90
2017-11-16T04:08:28.709Z,48.10
2017-11-16T04:09:29.342Z,37.30
2017-11-16T04:10:28.934Z,40.40
2017-11-16T04:11:28.984Z,41.20
2017-11-16T04:12:29.164Z,41.30
2017-11-16T04:13:29.291Z,42.40
2017-11-16T04:14:29.480Z,43.70
2017-11-16T04:15:28.842Z,42.30
2017-11-16T04:16:29.153Z,42.10
2017-11-16T04:17:28.703Z,42.40
2017-11-16T04:18:28.775Z,43.90
2017-11-16T04:19:28.899Z,42.70
2017-11-16T04:20:29.053Z,42.20
2017-11-16T04:21:29.338Z,42.90
2017-11-16T04:22:28.828Z,43.40
2017-11-16T04:23:28.861Z,44.30
2017-11-16T04:24:29.198Z,42.60
2017-11-16T04:25:29.378Z,44.40
2017-11-16T04:26:28.709Z,43.10
2017-11-16T04:27:28.374Z,44.90
2017-11-16T04:28:28.512Z,44.00
2017-11-16T04:29:28.390Z,42.30
2017-11-16T04:30:28.709Z,42.40
2017-11-16T04:31:29.200Z,43.70
2017-11-16T04:32:29.773Z,42.50
2017-11-16T04:33:29.140Z,43.20
2017-11-16T04:34:29.354Z,44.00
2017-11-16T04:35:29.446Z,41.40
2017-11-16T04:36:28.337Z,41.10
2017-11-16T04:37:29.780Z,40.60
2017-11-16T04:38:28.731Z,41.10
2017-11-16T04:39:28.617Z,41.40
2017-11-16T04:40:28.870Z,40.90
2017-11-16T04:41:28.721Z,41.00
2017-11-16T04:42:28.773Z,41.40
2017-11-16T04:43:29.063Z,40.10
2017-11-16T04:44:29.325Z,41.70
2017-11-16T04:45:29.051Z,41.60
2017-11-16T04:46:29.173Z,39.60
2017-11-16T04:47:29.042Z,41.00
2017-11-16T04:48:29.195Z,41.40
2017-11-16T04:49:29.135Z,40.40
2017-11-16T04:50:28.983Z,38.70
2017-11-16T04:51:29.429Z,38.40
2017-11-16T04:52:28.840Z,38.20
2017-11-16T04:53:29.168Z,36.90
2017-11-16T04:54:29.422Z,36.40
2017-11-16T04:55:28.368Z,36.90
2017-11-16T04:56:29.250Z,36.90
2017-11-16T04:57:29.977Z,38.60
2017-11-16T04:58:30.301Z,37.60
2017-11-16T04:59:28.677Z,35.90
2017-11-16T05:00:28.856Z,34.30
2017-11-16T05:01:29.122Z,35.10
2017-11-16T05:02:29.376Z,36.70
2017-11-16T05:03:28.301Z,35.00
2017-11-16T05:04:29.800Z,34.80
2017-11-16T05:05:28.893Z,34.00
2017-11-16T05:06:29.162Z,33.60
2017-11-16T05:07:29.428Z,35.70
2017-11-16T05:08:28.596Z,33.90
2017-11-16T05:09:28.726Z,34.00
2017-11-16T05:10:28.744Z,32.90
2017-11-16T05:10:51.827Z,31.60
2017-11-16T05:11:51.978Z,30.70
2017-11-16T05:12:52.091Z,32.50
2017-11-16T05:13:51.961Z,32.30
2017-11-16T05:14:52.213Z,30.80
2017-11-16T05:15:52.749Z,30.10
2017-11-16T05:16:51.985Z,31.60
2017-11-16T05:17:51.970Z,29.90
2017-11-16T05:18:52.138Z,29.60
2017-11-16T05:19:51.904Z,30.50
2017-11-16T05:20:52.282Z,30.30
2017-11-16T05:21:52.133Z,30.60
2017-11-16T05:22:52.376Z,31.90
2017-11-16T05:23:52.214Z,29.60
2017-11-16T05:24:52.531Z,31.50
2017-11-16T05:25:52.213Z,32.70
2017-11-16T05:26:52.770Z,32.20
2017-11-16T05:27:51.788Z,33.10
2017-11-16T05:28:51.888Z,31.20
2017-11-16T05:29:52.510Z,30.90
2017-11-16T05:30:52.418Z,32.10
2017-11-16T05:31:52.386Z,35.00
2017-11-16T05:32:52.461Z,32.30
2017-11-16T05:33:52.898Z,33.60
2017-11-16T05:34:52.030Z,32.30
2017-11-16T05:35:52.450Z,34.60
2017-11-16T05:36:52.697Z,34.30
2017-11-16T05:37:51.770Z,32.80
2017-11-16T05:38:51.614Z,32.80
2017-11-16T05:39:52.873Z,33.10
2017-11-16T05:40:52.061Z,32.20
2017-11-16T05:41:52.101Z,32.60
2017-11-16T05:42:52.121Z,33.10
2017-11-16T05:43:52.382Z,32.70
2017-11-16T05:44:52.205Z,34.60
2017-11-16T05:45:52.508Z,33.60
2017-11-16T05:46:53.035Z,31.90
2017-11-16T05:47:52.152Z,29.60
2017-11-16T05:48:52.229Z,32.90
2017-11-16T05:49:52.385Z,32.70
2017-11-16T05:50:52.667Z,30.90
2017-11-16T05:51:53.023Z,32.20
2017-11-16T05:52:52.092Z,31.60
2017-11-16T05:53:52.611Z,31.80
2017-11-16T05:54:52.090Z,33.70
2017-11-16T05:55:52.603Z,32.90
2017-11-16T05:56:52.658Z,32.10
2017-11-16T05:57:52.028Z,31.80
2017-11-16T05:58:51.796Z,30.50
2017-11-16T05:59:51.789Z,30.80
2017-11-16T06:00:52.299Z,31.60
2017-11-16T06:01:52.597Z,32.00
2017-11-16T06:02:52.650Z,31.60
2017-11-16T06:03:52.769Z,31.40
2017-11-16T06:04:52.703Z,29.70
2017-11-16T06:05:53.039Z,28.00
2017-11-16T06:06:52.227Z,29.80
2017-11-16T06:07:52.579Z,30.20
2017-11-16T06:08:52.257Z,29.50
2017-11-16T06:09:52.697Z,28.30
2017-11-16T06:10:51.930Z,27.70
2017-11-16T06:11:51.978Z,28.40
2017-11-16T06:12:52.180Z,28.00
2017-11-16T06:13:52.229Z,28.30
2017-11-16T06:14:52.428Z,30.00
2017-11-16T06:15:52.838Z,28.50
2017-11-16T06:16:51.773Z,29.40
2017-11-16T06:17:52.836Z,28.60
2017-11-16T06:18:51.826Z,28.90
2017-11-16T06:19:51.744Z,26.20
2017-11-16T06:20:52.138Z,25.40
2017-11-16T06:21:53.490Z,26.80
2017-11-16T06:22:52.562Z,27.20
2017-11-16T06:23:52.594Z,24.10
2017-11-16T06:24:53.873Z,24.80
2017-11-16T06:25:52.059Z,23.00
2017-11-16T06:26:51.412Z,23.50
2017-11-16T06:27:52.483Z,26.80
2017-11-16T06:28:52.425Z,25.20
2017-11-16T06:29:52.510Z,24.00
2017-11-16T06:30:52.606Z,24.80
2017-11-16T06:31:52.784Z,24.60
2017-11-16T06:32:52.848Z,24.70
2017-11-16T06:33:51.882Z,24.50
2017-11-16T06:34:51.601Z,23.70
2017-11-16T06:35:52.319Z,25.10
2017-11-16T06:36:51.843Z,24.90
2017-11-16T06:37:51.940Z,24.20
2017-11-16T06:38:51.747Z,23.80
2017-11-16T06:39:52.536Z,23.30
2017-11-16T06:40:52.760Z,25.40
2017-11-16T06:41:52.452Z,25.70
2017-11-16T06:42:52.772Z,23.60
2017-11-16T06:43:52.927Z,23.70
2017-11-16T06:44:52.680Z,23.40
2017-11-16T06:45:53.043Z,23.30
2017-11-16T06:46:52.068Z,23.20
2017-11-16T06:47:52.453Z,22.30
2017-11-16T06:48:52.217Z,21.80
2017-11-16T06:49:52.132Z,23.60
2017-11-16T06:50:52.221Z,21.80
2017-11-16T06:51:52.394Z,22.60
2017-11-16T06:52:52.862Z,22.00
2017-11-16T06:53:51.631Z,22.20
2017-11-16T06:54:52.356Z,23.50
2017-11-16T06:55:52.275Z,22.80
2017-11-16T06:56:51.867Z,22.90
2017-11-16T06:57:51.791Z,23.40
2017-11-16T06:58:52.983Z,23.70
2017-11-16T06:59:51.831Z,23.80
2017-11-16T07:00:52.001Z,20.40
2017-11-16T07:01:51.785Z,24.40
2017-11-16T07:02:52.071Z,24.20
2017-11-16T07:03:52.301Z,24.20
2017-11-16T07:04:52.634Z,23.70
2017-11-16T07:05:52.872Z,24.40
2017-11-16T07:06:52.358Z,23.70
2017-11-16T07:07:52.272Z,23.20
2017-11-16T07:08:52.170Z,23.50
2017-11-16T07:10:13.768Z,23.40
2017-11-16T07:10:56.569Z,23.60
2017-11-16T07:12:03.972Z,22.80
2017-11-16T07:12:57.590Z,23.10
2017-11-16T07:13:55.157Z,25.40
2017-11-16T07:14:59.704Z,23.30
2017-11-16T07:15:54.977Z,23.40
2017-11-16T07:19:53.168Z,24.60
2017-11-16T07:20:52.029Z,24.90
2017-11-16T07:21:52.907Z,24.30
2017-11-16T07:22:52.398Z,23.40
2017-11-16T07:23:52.789Z,24.70
2017-11-16T07:24:52.103Z,23.90
2017-11-16T07:25:52.625Z,24.00
2017-11-16T07:26:53.006Z,24.00
2017-11-16T07:27:52.414Z,23.80
2017-11-16T07:28:52.357Z,24.80
2017-11-16T07:29:52.287Z,25.40
2017-11-16T07:30:51.640Z,24.60
2017-11-16T07:31:52.430Z,24.40
2017-11-16T07:32:52.294Z,23.10
2017-11-16T07:33:52.564Z,24.00
2017-11-16T07:34:52.633Z,24.60
2017-11-16T07:35:52.354Z,25.30
2017-11-16T07:36:52.559Z,24.20
2017-11-16T07:37:52.759Z,24.70
2017-11-16T07:38:51.956Z,23.50
2017-11-16T07:39:51.730Z,23.90
2017-11-16T07:40:51.636Z,23.60
2017-11-16T07:41:52.550Z,22.50
2017-11-16T07:42:52.391Z,23.90
2017-11-16T07:43:52.508Z,23.30
2017-11-16T07:44:52.900Z,23.50
2017-11-16T07:45:52.061Z,22.60
2017-11-16T07:46:52.531Z,23.00
2017-11-16T07:47:52.833Z,24.90
2017-11-16T07:48:52.209Z,23.50
2017-11-16T07:49:52.533Z,23.20
2017-11-16T07:50:52.749Z,23.00
2017-11-16T07:51:52.360Z,23.70
2017-11-16T07:52:52.408Z,23.50
2017-11-16T07:53:52.238Z,23.00
2017-11-16T07:54:52.323Z,23.40
2017-11-16T07:55:52.071Z,23.40
2017-11-16T07:56:51.966Z,23.20
2017-11-16T07:57:51.752Z,21.90
2017-11-16T07:58:53.212Z,24.40
2017-11-16T07:59:52.119Z,23.60
2017-11-16T08:00:52.523Z,24.00
2017-11-16T08:01:52.883Z,24.20
2017-11-16T08:02:51.712Z,24.70
2017-11-16T08:03:52.093Z,24.90
2017-11-16T08:04:51.937Z,25.00
2017-11-16T08:05:52.217Z,24.30
2017-11-16T08:06:53.039Z,25.60
2017-11-16T08:07:51.732Z,23.60
2017-11-16T08:08:52.531Z,26.30
2017-11-16T08:09:52.412Z,25.80
2017-11-16T08:10:52.750Z,25.40
2017-11-16T08:11:52.108Z,25.90
2017-11-16T08:12:52.484Z,26.50
2017-11-16T08:13:52.885Z,24.80
2017-11-16T08:14:52.924Z,25.10
2017-11-16T08:15:51.962Z,26.50
2017-11-16T08:16:51.952Z,24.50
2017-11-16T08:17:52.154Z,26.30
2017-11-16T08:18:52.485Z,25.30
2017-11-16T08:19:52.728Z,24.50
2017-11-16T08:20:53.078Z,25.30
2017-11-16T08:21:52.685Z,25.30
2017-11-16T08:22:52.863Z,25.30
2017-11-16T08:23:52.178Z,25.60
2017-11-16T08:24:52.051Z,26.00
2017-11-16T08:25:52.516Z,24.90
2017-11-16T08:26:52.273Z,25.10
2017-11-16T08:27:52.767Z,24.70
2017-11-16T08:28:52.388Z,23.50
2017-11-16T08:29:52.144Z,23.60
2017-11-16T08:30:52.423Z,22.80
2017-11-16T08:31:52.229Z,22.10
2017-11-16T08:32:51.740Z,23.70
2017-11-16T08:33:53.306Z,23.50
2017-11-16T08:34:52.087Z,23.70
2017-11-16T08:35:52.321Z,23.50
2017-11-16T08:36:52.754Z,24.00
2017-11-16T08:37:53.123Z,21.70
2017-11-16T08:38:52.414Z,20.20
2017-11-16T08:39:52.577Z,20.50
2017-11-16T08:40:52.824Z,20.80
2017-11-16T08:41:52.345Z,20.90
2017-11-16T08:42:52.813Z,20.70
2017-11-16T08:43:51.947Z,21.60
2017-11-16T08:44:52.234Z,19.70
2017-11-16T08:45:52.405Z,19.80
2017-11-16T08:46:51.549Z,19.20
2017-11-16T08:47:52.890Z,19.90
2017-11-16T08:48:52.215Z,20.50
2017-11-16T08:49:52.794Z,21.40
2017-11-16T08:50:52.125Z,20.60
2017-11-16T08:51:52.842Z,19.90
2017-11-16T08:52:52.033Z,19.50
2017-11-16T08:53:51.906Z,18.10
2017-11-16T08:54:52.085Z,19.20
2017-11-16T08:55:52.499Z,19.20
2017-11-16T08:56:53.096Z,19.70
2017-11-16T08:57:52.136Z,19.40
2017-11-16T08:58:51.983Z,19.10
2017-11-16T08:59:52.157Z,18.50
2017-11-16T09:00:53.294Z,18.80
2017-11-16T09:01:52.586Z,20.00
2017-11-16T09:02:52.975Z,18.80
2017-11-16T09:03:51.722Z,18.10
2017-11-16T09:04:53.325Z,18.80
2017-11-16T09:05:52.291Z,17.20
2017-11-16T09:06:52.657Z,16.20
2017-11-16T09:07:52.909Z,17.40
2017-11-16T09:08:52.437Z,18.70
2017-11-16T09:09:52.968Z,18.50
2017-11-16T09:10:52.175Z,18.60
2017-11-16T09:11:52.332Z,17.30
2017-11-16T09:12:52.534Z,17.50
2017-11-16T09:13:52.643Z,17.20
2017-11-16T09:14:52.178Z,16.20
2017-11-16T09:15:52.880Z,16.90
2017-11-16T09:16:52.076Z,16.70
2017-11-16T09:17:53.434Z,17.10
2017-11-16T09:18:52.290Z,18.50
2017-11-16T09:19:52.635Z,17.60
2017-11-16T09:20:53.363Z,17.60
2017-11-16T09:21:52.669Z,17.60
2017-11-16T09:22:51.750Z,16.60
2017-11-16T09:23:51.803Z,18.00
2017-11-16T09:24:51.620Z,16.50
2017-11-16T09:25:52.925Z,15.80
2017-11-16T09:26:52.635Z,17.20
2017-11-16T09:27:53.325Z,16.50
2017-11-16T09:28:52.100Z,17.30
2017-11-16T09:29:52.140Z,18.00
2017-11-16T09:30:52.949Z,16.80
2017-11-16T09:31:52.613Z,17.40
2017-11-16T09:32:53.384Z,16.80
2017-11-16T09:33:52.684Z,15.90
2017-11-16T09:34:52.563Z,16.90
2017-11-16T09:35:52.304Z,16.50
2017-11-16T09:36:52.541Z,16.50
2017-11-16T09:37:52.044Z,17.90
2017-11-16T09:38:52.282Z,17.40
2017-11-16T09:39:52.441Z,17.50
2017-11-16T09:40:52.168Z,17.30
2017-11-16T09:41:52.395Z,17.80
2017-11-16T09:42:52.071Z,17.60
2017-11-16T09:43:52.292Z,16.40
2017-11-16T09:44:52.145Z,19.30
2017-11-16T09:45:52.728Z,17.40
2017-11-16T09:46:53.208Z,17.30
2017-11-16T09:47:52.544Z,16.70
2017-11-16T09:48:52.458Z,17.80
2017-11-16T09:49:52.676Z,16.70
2017-11-16T09:50:52.518Z,16.30
2017-11-16T09:51:52.959Z,15.20
2017-11-16T09:52:52.266Z,17.50
2017-11-16T09:53:52.492Z,17.10
2017-11-16T09:54:52.808Z,17.70
2017-11-16T09:55:53.097Z,18.70
2017-11-16T09:56:52.019Z,17.90
2017-11-16T09:57:52.594Z,17.80
2017-11-16T09:58:52.706Z,18.50
2017-11-16T09:59:52.524Z,16.60
2017-11-16T10:00:52.027Z,16.90
2017-11-16T10:01:52.341Z,17.10
2017-11-16T10:02:52.165Z,17.70
2017-11-16T10:03:51.955Z,18.30
2017-11-16T10:04:52.157Z,16.90
2017-11-16T10:05:52.043Z,17.40
2017-11-16T10:06:52.610Z,17.90
2017-11-16T10:07:53.045Z,17.40
2017-11-16T10:08:51.805Z,18.30
2017-11-16T10:09:51.719Z,18.10
2017-11-16T10:10:53.022Z,16.10
2017-11-16T10:11:51.854Z,16.90
2017-11-16T10:12:51.682Z,16.60
2017-11-16T10:13:53.070Z,18.30
2017-11-16T10:14:51.873Z,17.60
2017-11-16T10:15:53.040Z,17.60
2017-11-16T10:16:52.259Z,17.10
2017-11-16T10:17:52.489Z,17.70
2017-11-16T10:18:52.865Z,17.10
2017-11-16T10:19:51.685Z,19.30
2017-11-16T10:20:52.927Z,16.30
2017-11-16T10:21:53.891Z,17.50
2017-11-16T10:22:52.093Z,17.60
2017-11-16T10:23:52.401Z,17.80
2017-11-16T10:24:51.706Z,17.90
2017-11-16T10:25:53.528Z,18.50
2017-11-16T10:26:52.772Z,17.80
2017-11-16T10:27:52.621Z,17.00
2017-11-16T10:28:53.124Z,18.30
2017-11-16T10:29:52.437Z,18.20
2017-11-16T10:30:52.240Z,18.00
2017-11-16T10:31:52.028Z,18.40
2017-11-16T10:32:52.296Z,18.40
2017-11-16T10:33:52.654Z,18.90
2017-11-16T10:34:52.969Z,17.30
2017-11-16T10:35:51.749Z,17.30
2017-11-16T10:36:52.928Z,17.20
2017-11-16T10:37:52.619Z,16.80
2017-11-16T10:38:52.537Z,17.10
2017-11-16T10:39:52.329Z,16.20
2017-11-16T10:40:52.781Z,17.40
2017-11-16T10:41:51.689Z,17.10
2017-11-16T10:42:52.389Z,17.30
2017-11-16T10:43:52.278Z,17.60
2017-11-16T10:44:52.696Z,16.40
2017-11-16T10:45:52.513Z,16.50
2017-11-16T10:46:52.850Z,16.00
2017-11-16T10:47:51.734Z,16.80
2017-11-16T10:48:52.907Z,15.40
2017-11-16T10:49:51.825Z,17.00
2017-11-16T10:50:52.234Z,16.50
2017-11-16T10:51:52.727Z,17.20
2017-11-16T10:52:53.085Z,17.40
2017-11-16T10:53:52.445Z,16.70
2017-11-16T10:54:53.288Z,16.50
2017-11-16T10:55:51.990Z,16.10
2017-11-16T10:56:52.662Z,15.80
2017-11-16T10:57:52.474Z,17.30
2017-11-16T10:58:53.183Z,17.20
2017-11-16T10:59:52.290Z,17.40
2017-11-16T11:00:52.566Z,17.10
2017-11-16T11:01:52.262Z,16.60
2017-11-16T11:02:52.786Z,15.60
2017-11-16T11:03:51.734Z,15.80
2017-11-16T11:04:52.745Z,16.60
2017-11-16T11:05:53.137Z,17.10
2017-11-16T11:06:52.628Z,16.40
2017-11-16T11:07:52.210Z,17.00
2017-11-16T11:08:52.623Z,15.80
2017-11-16T11:09:53.680Z,15.50
2017-11-16T11:10:52.699Z,16.10
2017-11-16T11:11:53.286Z,15.10
2017-11-16T11:12:52.181Z,15.10
2017-11-16T11:13:52.435Z,16.90
2017-11-16T11:14:52.420Z,15.70
2017-11-16T11:15:52.811Z,17.40
2017-11-16T11:16:52.199Z,17.10
2017-11-16T11:17:52.647Z,17.70
2017-11-16T11:18:52.650Z,17.00
2017-11-16T11:19:53.292Z,16.20
2017-11-16T11:20:52.744Z,16.50
2017-11-16T11:21:51.676Z,15.90
2017-11-16T11:22:53.226Z,16.80
2017-11-16T11:23:52.750Z,16.90
2017-11-16T11:24:52.111Z,16.30
2017-11-16T11:25:52.546Z,17.20
2017-11-16T11:26:52.912Z,16.90
2017-11-16T11:27:52.068Z,17.00
2017-11-16T11:28:52.442Z,18.20
2017-11-16T11:29:52.344Z,18.90
2017-11-16T11:30:52.832Z,17.10
2017-11-16T11:31:52.087Z,16.30
2017-11-16T11:32:52.052Z,17.10
2017-11-16T11:33:51.973Z,16.50
2017-11-16T11:34:52.044Z,16.30
2017-11-16T11:35:52.685Z,17.90
2017-11-16T11:36:51.815Z,18.10
2017-11-16T11:37:51.800Z,18.80
2017-11-16T11:38:52.325Z,17.90
2017-11-16T11:39:53.302Z,17.30
2017-11-16T11:40:52.789Z,17.90
2017-11-16T11:41:51.886Z,19.10
2017-11-16T11:42:53.154Z,18.50
2017-11-16T11:43:52.454Z,18.10
2017-11-16T11:44:52.862Z,17.40
2017-11-16T11:45:52.845Z,18.50
2017-11-16T11:46:52.565Z,18.20
2017-11-16T11:47:52.607Z,17.20
2017-11-16T11:48:52.506Z,17.80
2017-11-16T11:49:52.283Z,19.50
2017-11-16T11:50:52.568Z,18.50
2017-11-16T11:51:52.550Z,17.70
2017-11-16T11:52:53.200Z,17.90
2017-11-16T11:53:52.348Z,18.00
2017-11-16T11:54:52.436Z,18.70
2017-11-16T11:55:52.824Z,15.60
2017-11-16T11:56:52.544Z,18.20
2017-11-16T11:57:52.518Z,18.80
2017-11-16T11:58:52.534Z,19.60
2017-11-16T11:59:52.603Z,19.90
2017-11-16T12:00:52.661Z,18.50
2017-11-16T12:01:52.943Z,19.30
2017-11-16T12:02:51.917Z,19.40
2017-11-16T12:03:52.219Z,18.30
2017-11-16T12:04:52.210Z,19.50
2017-11-16T12:05:52.935Z,18.50
2017-11-16T12:06:51.968Z,19.20
2017-11-16T12:07:52.491Z,19.00
2017-11-16T12:08:52.440Z,19.40
2017-11-16T12:09:52.389Z,19.30
2017-11-16T12:10:52.706Z,20.50
2017-11-16T12:11:53.037Z,20.10
2017-11-16T12:12:51.953Z,20.50
2017-11-16T12:13:52.505Z,19.80
2017-11-16T12:14:52.377Z,20.80
2017-11-16T12:15:52.903Z,20.50
2017-11-16T12:16:52.488Z,21.10
2017-11-16T12:17:52.911Z,19.90
2017-11-16T12:18:51.959Z,20.50
2017-11-16T12:19:52.500Z,19.30
2017-11-16T12:20:53.147Z,19.20
2017-11-16T12:21:52.662Z,19.70
2017-11-16T12:22:53.016Z,20.30
2017-11-16T12:23:52.329Z,20.40
2017-11-16T12:24:51.671Z,19.10
2017-11-16T12:25:52.938Z,19.80
2017-11-16T12:26:53.238Z,20.20
2017-11-16T12:27:52.342Z,18.80
2017-11-16T12:28:51.965Z,19.60
2017-11-16T12:29:52.290Z,19.30
2017-11-16T12:30:53.785Z,21.20
2017-11-16T12:31:52.704Z,21.20
2017-11-16T12:32:52.049Z,21.30
2017-11-16T12:33:53.799Z,21.10
2017-11-16T12:34:52.431Z,21.50
2017-11-16T12:35:53.260Z,20.00
2017-11-16T12:36:52.509Z,19.90
2017-11-16T12:37:52.805Z,21.50
2017-11-16T12:38:52.255Z,21.40
2017-11-16T12:39:53.036Z,20.80
2017-11-16T12:40:51.986Z,19.60
2017-11-16T12:41:52.118Z,20.30
2017-11-16T12:42:53.108Z,20.00
2017-11-16T12:43:52.617Z,19.80
2017-11-16T12:44:52.527Z,20.80
2017-11-16T12:45:52.739Z,19.80
2017-11-16T12:47:00.124Z,21.10
2017-11-16T12:47:59.960Z,20.50
2017-11-16T12:49:01.769Z,20.80
2017-11-16T12:49:56.649Z,21.50
2017-11-16T12:50:56.471Z,21.50
2017-11-16T12:51:52.631Z,22.10
2017-11-16T12:52:53.276Z,21.60
2017-11-16T12:53:52.747Z,21.60
2017-11-16T12:54:52.688Z,20.70
2017-11-16T12:55:52.763Z,20.50